Time;durP1;ratioP1;P1;durP2;ratioP2;P2;SDS_P1;SDS_P2;PMS_P1;PMS_P2;Temp;Humidity;BMP_temperature;BMP_pressure;BME280_temperature;BME280_humidity;BME280_pressure;Samples;Min_cycle;Max_cycle;Signal;HPM_P1;HPM_P2
2021/12/27 00:04:16;;;;;;;37.10;18.83;;;;;;;5.14;100.00;94313.00;10382291;28;20025;-73
2021/12/27 00:09:17;;;;;;;37.35;16.88;;;;;;;5.16;100.00;94307.41;10403467;28;20518;-83
2021/12/27 00:14:18;;;;;;;35.33;17.85;;;;;;;4.97;100.00;94318.38;10366128;28;20056;-75
2021/12/27 00:19:19;;;;;;;33.50;17.92;;;;;;;5.20;100.00;94305.06;10383831;28;20025;-72
2021/12/27 00:24:19;;;;;;;34.80;17.80;;;;;;;5.08;100.00;94307.84;10377145;28;20374;-73
2021/12/27 00:29:20;;;;;;;31.85;17.83;;;;;;;5.13;100.00;94294.59;10405988;28;20033;-73
2021/12/27 00:34:21;;;;;;;40.55;18.63;;;;;;;5.26;100.00;94306.72;10392216;28;20029;-74
2021/12/27 00:39:21;;;;;;;37.72;17.75;;;;;;;5.07;100.00;94306.25;10390301;28;20021;-75
2021/12/27 00:44:22;;;;;;;33.65;17.90;;;;;;;5.26;100.00;94296.06;10388983;28;20045;-75
2021/12/27 00:49:23;;;;;;;32.97;17.13;;;;;;;5.07;100.00;94303.59;10375166;28;20090;-80
2021/12/27 00:54:23;;;;;;;37.75;17.45;;;;;;;5.22;100.00;94309.09;10372920;28;20025;-75
2021/12/27 00:59:24;;;;;;;35.97;17.00;;;;;;;5.25;100.00;94313.13;10389977;28;20449;-79
2021/12/27 01:04:25;;;;;;;33.63;17.65;;;;;;;4.95;100.00;94315.19;10362414;28;20030;-74
2021/12/27 01:15:32;;;;;;;27.15;15.88;;;;;;;5.08;100.00;94315.84;10359411;28;20030;-77
2021/12/27 01:20:30;;;;;;;39.28;17.00;;;;;;;4.83;100.00;94317.16;10365408;28;20432;-81
2021/12/27 01:25:32;;;;;;;36.13;19.00;;;;;;;4.75;100.00;94302.41;10364334;28;20029;-82
2021/12/27 01:30:37;;;;;;;42.13;17.23;;;;;;;4.87;100.00;94291.66;10362975;28;20030;-75
2021/12/27 01:35:37;;;;;;;32.90;14.70;;;;;;;5.04;100.00;94280.13;10363840;28;20018;-75
2021/12/27 01:40:40;;;;;;;31.58;15.85;;;;;;;4.95;100.00;94285.06;10363220;28;20025;-77
2021/12/27 01:45:52;;;;;;;28.85;17.15;;;;;;;4.90;100.00;94285.81;10330825;28;20788;-79
2021/12/27 01:50:54;;;;;;;34.63;16.83;;;;;;;5.02;100.00;94298.19;10353458;28;20145;-81
2021/12/27 01:55:56;;;;;;;30.15;15.95;;;;;;;5.17;100.00;94274.41;10345607;28;20100;-73
2021/12/27 02:00:59;;;;;;;32.28;16.73;;;;;;;5.35;100.00;94267.13;10367931;28;20132;-72
2021/12/27 02:06:00;;;;;;;38.22;17.60;;;;;;;5.11;100.00;94278.06;10369408;28;20024;-74
2021/12/27 02:11:05;;;;;;;33.33;14.60;;;;;;;5.19;100.00;94282.13;10403612;28;20040;-78
2021/12/27 02:16:05;;;;;;;33.78;15.57;;;;;;;5.40;100.00;94251.16;10355785;28;20129;-71
2021/12/27 02:21:07;;;;;;;22.13;11.40;;;;;;;5.53;100.00;94260.63;10387014;28;20029;-75
2021/12/27 02:26:09;;;;;;;24.52;10.90;;;;;;;5.72;100.00;94258.38;10390815;28;20036;-77
2021/12/27 02:31:09;;;;;;;22.90;10.50;;;;;;;5.86;100.00;94258.75;10408798;28;20025;-77
2021/12/27 02:36:11;;;;;;;22.48;11.80;;;;;;;6.03;100.00;94240.78;10387971;28;20091;-78
2021/12/27 02:41:12;;;;;;;28.60;14.25;;;;;;;6.08;100.00;94243.47;10384553;28;20029;-80
2021/12/27 02:46:14;;;;;;;26.10;13.82;;;;;;;5.92;100.00;94228.41;10402281;28;20053;-74
2021/12/27 02:51:18;;;;;;;19.27;10.70;;;;;;;6.05;100.00;94211.97;10384242;28;20029;-76
2021/12/27 02:56:19;;;;;;;22.77;11.35;;;;;;;6.15;100.00;94221.91;10384984;28;20021;-73
2021/12/27 03:01:23;;;;;;;27.13;12.48;;;;;;;6.08;100.00;94230.13;10384637;28;20030;-78
2021/12/27 03:06:24;;;;;;;32.08;16.83;;;;;;;5.37;100.00;94241.84;10369047;28;20112;-74
2021/12/27 03:11:24;;;;;;;40.80;18.13;;;;;;;5.14;100.00;94235.75;10386998;28;20508;-75
2021/12/27 03:16:25;;;;;;;32.65;15.70;;;;;;;5.38;100.00;94230.09;10385104;28;20388;-75
2021/12/27 03:21:26;;;;;;;28.33;15.55;;;;;;;5.53;100.00;94233.97;10385770;28;20029;-70
2021/12/27 03:26:27;;;;;;;32.33;15.70;;;;;;;5.28;100.00;94235.34;10382372;28;20025;-71
2021/12/27 03:31:27;;;;;;;35.17;18.35;;;;;;;5.37;100.00;94233.03;10366744;28;20025;-75
2021/12/27 03:36:28;;;;;;;38.28;17.17;;;;;;;5.52;100.00;94221.69;10383784;28;20550;-79
2021/12/27 03:41:28;;;;;;;33.70;16.27;;;;;;;5.58;100.00;94207.34;10383461;28;20030;-78
2021/12/27 03:46:29;;;;;;;30.65;15.50;;;;;;;5.72;100.00;94218.38;10383025;28;20424;-75
2021/12/27 03:51:30;;;;;;;34.92;14.02;;;;;;;5.74;100.00;94205.63;10388284;28;20744;-75
2021/12/27 03:56:31;;;;;;;21.98;9.48;;;;;;;5.80;100.00;94188.59;10382291;28;20022;-75
2021/12/27 04:01:31;;;;;;;21.38;11.13;;;;;;;5.88;100.00;94190.78;10401270;28;20029;-76
2021/12/27 04:06:32;;;;;;;25.92;11.30;;;;;;;5.99;100.00;94194.34;10409871;28;20031;-76
2021/12/27 04:11:33;;;;;;;20.42;10.82;;;;;;;5.85;100.00;94193.97;10391756;28;20025;-75
2021/12/27 04:16:35;;;;;;;25.92;13.05;;;;;;;5.87;100.00;94213.16;10374839;28;20032;-78
2021/12/27 04:21:36;;;;;;;28.20;14.32;;;;;;;5.69;100.00;94224.22;10408939;28;20381;-74
2021/12/27 04:26:39;;;;;;;29.33;14.18;;;;;;;5.60;100.00;94223.91;10391034;28;20566;-77
2021/12/27 04:31:40;;;;;;;31.23;15.70;;;;;;;5.55;100.00;94224.66;10373653;28;20478;-79
2021/12/27 04:36:41;;;;;;;30.67;15.32;;;;;;;5.64;100.00;94215.13;10373694;28;20032;-76
2021/12/27 04:41:42;;;;;;;30.83;15.70;;;;;;;5.61;100.00;94231.63;10390015;28;20391;-73
2021/12/27 04:46:42;;;;;;;36.88;16.00;;;;;;;5.61;100.00;94225.50;10365109;28;20460;-74
2021/12/27 04:51:43;;;;;;;31.48;15.50;;;;;;;5.67;100.00;94224.50;10365629;28;20125;-73
2021/12/27 04:56:46;;;;;;;29.10;14.50;;;;;;;5.62;100.00;94227.09;10351516;28;20022;-76
2021/12/27 05:01:46;;;;;;;29.00;14.60;;;;;;;5.59;100.00;94233.75;10324935;28;20531;-73
2021/12/27 05:06:46;;;;;;;28.02;13.73;;;;;;;5.52;100.00;94238.47;10345837;28;20428;-78
2021/12/27 05:11:48;;;;;;;37.08;15.23;;;;;;;5.49;100.00;94239.00;10318299;28;20117;-73
2021/12/27 05:16:49;;;;;;;23.98;13.27;;;;;;;5.58;100.00;94218.00;10338189;28;20073;-76
2021/12/27 05:21:49;;;;;;;27.63;11.73;;;;;;;5.74;100.00;94211.75;10341430;28;20562;-75
2021/12/27 05:26:50;;;;;;;33.25;12.52;;;;;;;5.76;100.00;94219.47;10350697;28;20038;-75
2021/12/27 05:31:51;;;;;;;24.70;12.85;;;;;;;5.82;100.00;94218.47;10326154;28;20109;-79
2021/12/27 05:36:53;;;;;;;27.58;12.10;;;;;;;5.73;100.00;94210.13;10340094;28;20026;-78
2021/12/27 05:41:54;;;;;;;25.38;11.27;;;;;;;5.84;100.00;94227.00;10364792;28;20034;-72
2021/12/27 05:46:55;;;;;;;24.02;12.48;;;;;;;5.67;100.00;94231.69;10406475;28;20049;-76
2021/12/27 05:51:55;;;;;;;22.17;11.88;;;;;;;5.76;100.00;94230.16;10399095;28;20025;-77
2021/12/27 05:56:56;;;;;;;23.85;12.05;;;;;;;5.79;100.00;94229.63;10370594;28;20026;-78
2021/12/27 06:01:56;;;;;;;19.75;9.75;;;;;;;5.93;100.00;94225.47;10373837;28;20384;-84
2021/12/27 06:06:57;;;;;;;19.85;9.75;;;;;;;5.96;100.00;94224.19;10388364;28;20493;-83
2021/12/27 06:11:57;;;;;;;12.18;6.90;;;;;;;6.16;100.00;94212.84;10387037;28;20518;-75
2021/12/27 06:16:58;;;;;;;14.10;7.95;;;;;;;6.13;100.00;94206.16;10408475;28;20049;-74
2021/12/27 06:21:59;;;;;;;13.65;7.95;;;;;;;6.21;100.00;94218.22;10387570;28;20051;-75
2021/12/27 06:27:04;;;;;;;22.88;11.75;;;;;;;6.16;100.00;94220.84;10406018;28;20036;-80
2021/12/27 06:32:05;;;;;;;23.02;11.45;;;;;;;5.93;100.00;94217.47;10388318;28;20082;-77
2021/12/27 06:37:07;;;;;;;21.90;11.10;;;;;;;6.02;100.00;94222.38;10403476;28;20116;-72
2021/12/27 06:42:08;;;;;;;23.42;11.43;;;;;;;6.18;100.00;94205.38;10386207;28;20039;-79
2021/12/27 06:47:08;;;;;;;25.33;11.52;;;;;;;6.35;100.00;94175.88;10388988;28;20515;-75
2021/12/27 06:52:11;;;;;;;12.15;5.82;;;;;;;6.47;100.00;94189.81;10385258;28;20029;-77
2021/12/27 06:57:20;;;;;;;8.63;5.10;;;;;;;6.60;100.00;94201.84;10390100;28;20029;-81
2021/12/27 07:02:21;;;;;;;10.52;6.78;;;;;;;6.78;100.00;94187.25;10389751;28;20479;-81
2021/12/27 07:07:21;;;;;;;14.27;6.28;;;;;;;6.88;100.00;94174.97;10372089;28;20120;-80
2021/12/27 07:12:23;;;;;;;10.43;5.38;;;;;;;7.00;100.00;94189.69;10397861;28;20037;-79
2021/12/27 07:17:24;;;;;;;10.77;5.60;;;;;;;7.24;100.00;94180.38;10387725;28;20484;-79
2021/12/27 07:22:25;;;;;;;12.48;5.40;;;;;;;7.31;100.00;94184.41;10386594;28;20029;-79
2021/12/27 07:27:25;;;;;;;3.38;2.30;;;;;;;7.65;100.00;94157.13;10373355;28;20034;-78
2021/12/27 07:32:26;;;;;;;1.75;0.88;;;;;;;8.66;100.00;94155.56;10333889;28;20018;-76
2021/12/27 07:37:26;;;;;;;5.15;1.48;;;;;;;9.77;100.00;94148.09;10381944;28;20517;-75
2021/12/27 07:42:27;;;;;;;10.77;5.85;;;;;;;10.04;100.00;94164.47;10413190;28;20025;-75
2021/12/27 07:47:29;;;;;;;16.90;7.50;;;;;;;9.61;100.00;94158.16;10392893;28;20115;-74
2021/12/27 07:52:29;;;;;;;11.70;5.60;;;;;;;9.41;100.00;94147.31;10368113;28;20492;-75
2021/12/27 07:57:30;;;;;;;4.15;1.92;;;;;;;9.63;100.00;94151.44;10367561;28;20030;-81
2021/12/27 08:02:32;;;;;;;2.08;1.00;;;;;;;10.01;100.00;94148.94;10371250;28;20104;-75
2021/12/27 08:07:32;;;;;;;2.67;0.65;;;;;;;10.43;100.00;94141.28;10371217;28;20038;-79
2021/12/27 08:12:33;;;;;;;15.57;7.07;;;;;;;9.95;100.00;94142.03;10370192;28;20030;-81
2021/12/27 08:17:34;;;;;;;13.52;6.57;;;;;;;9.29;100.00;94152.22;10350336;28;20036;-74
2021/12/27 08:22:34;;;;;;;15.65;6.88;;;;;;;9.01;100.00;94156.44;10352165;28;20105;-75
2021/12/27 08:27:38;;;;;;;13.55;7.40;;;;;;;8.82;100.00;94141.00;10367505;28;20033;-75
2021/12/27 08:32:42;;;;;;;16.17;6.13;;;;;;;8.80;100.00;94123.59;10365489;28;20030;-76
2021/12/27 08:37:45;;;;;;;12.35;6.93;;;;;;;8.44;100.00;94140.63;10367244;28;20049;-79
2021/12/27 08:42:45;;;;;;;14.05;6.55;;;;;;;8.53;100.00;94138.19;10334582;28;20403;-77
2021/12/27 08:47:46;;;;;;;10.30;6.38;;;;;;;8.42;100.00;94148.13;10333551;28;20052;-79
2021/12/27 08:52:47;;;;;;;13.15;6.53;;;;;;;7.89;100.00;94145.06;10367451;28;20026;-75
2021/12/27 08:57:48;;;;;;;15.95;6.15;;;;;;;8.32;100.00;94116.03;10391775;28;20033;-75
2021/12/27 09:02:50;;;;;;;13.02;6.63;;;;;;;8.61;100.00;94097.47;10389252;28;20502;-78
2021/12/27 09:07:50;;;;;;;4.68;1.52;;;;;;;9.74;100.00;94093.91;10360531;28;20036;-81
2021/12/27 09:12:51;;;;;;;2.85;1.08;;;;;;;10.51;100.00;94080.75;10350672;28;20033;-73
2021/12/27 09:17:51;;;;;;;5.05;1.20;;;;;;;11.22;100.00;94095.06;10348599;28;20024;-75
2021/12/27 09:22:52;;;;;;;4.18;1.40;;;;;;;11.49;100.00;94072.03;10348775;28;20018;-82
2021/12/27 09:27:53;;;;;;;3.53;0.70;;;;;;;11.75;100.00;94068.91;10348387;28;20719;-74
2021/12/27 09:32:53;;;;;;;1.92;1.00;;;;;;;11.98;100.00;94051.00;10372574;28;20026;-72
2021/12/27 09:37:54;;;;;;;5.00;1.10;;;;;;;12.23;100.00;94051.59;10367519;28;20484;-79
2021/12/27 09:42:55;;;;;;;7.35;1.00;;;;;;;12.40;98.05;94065.25;10348589;28;20022;-82
2021/12/27 09:47:55;;;;;;;2.30;1.08;;;;;;;12.55;97.27;94052.59;10362791;28;20921;-73
2021/12/27 09:52:56;;;;;;;4.35;0.95;;;;;;;12.52;95.17;94072.84;10348805;28;20471;-79
2021/12/27 09:57:59;;;;;;;1.42;0.77;;;;;;;12.58;94.19;94041.19;10365278;28;20022;-72
2021/12/27 10:03:00;;;;;;;1.35;0.75;;;;;;;12.55;94.55;94052.59;10331393;28;20022;-73
2021/12/27 10:08:01;;;;;;;1.63;0.82;;;;;;;12.63;94.23;94033.00;10361030;28;20049;-75
2021/12/27 10:13:11;;;;;;;2.85;0.73;;;;;;;12.68;93.00;94062.53;10360568;28;20096;-75
2021/12/27 10:18:16;;;;;;;1.17;0.75;;;;;;;12.76;91.84;94069.91;10360736;28;20025;-80
2021/12/27 10:23:20;;;;;;;1.15;0.82;;;;;;;12.70;89.69;94051.44;10343797;28;20104;-75
2021/12/27 10:28:27;;;;;;;1.95;1.02;;;;;;;12.88;90.59;94044.28;10345397;28;20507;-79
2021/12/27 10:33:33;;;;;;;2.60;0.80;;;;;;;12.92;90.88;94034.50;10313904;28;20026;-75
2021/12/27 10:38:40;;;;;;;6.22;1.20;;;;;;;12.92;89.97;94040.72;10344610;28;20292;-75
2021/12/27 10:43:48;;;;;;;2.67;0.50;;;;;;;12.95;89.78;94025.81;10336542;28;20140;-74
2021/12/27 10:48:57;;;;;;;1.58;0.68;;;;;;;12.98;89.20;94006.31;10364055;28;20038;-70
2021/12/27 10:54:01;;;;;;;2.75;1.00;;;;;;;13.09;88.44;94004.16;10407681;28;20388;-75
2021/12/27 10:59:02;;;;;;;4.38;1.63;;;;;;;13.26;87.37;93990.78;10386490;28;20518;-80
2021/12/27 11:04:02;;;;;;;6.10;1.45;;;;;;;13.37;84.83;93988.66;10384931;28;20128;-77
2021/12/27 11:09:03;;;;;;;3.13;1.33;;;;;;;13.75;82.46;93992.84;10386868;28;20041;-75
2021/12/27 11:14:03;;;;;;;4.60;0.82;;;;;;;14.29;75.77;93988.06;10401607;28;20030;-75
2021/12/27 11:19:04;;;;;;;3.17;0.80;;;;;;;15.00;68.96;93997.88;10382256;28;20018;-76
2021/12/27 11:24:05;;;;;;;5.20;0.90;;;;;;;14.60;70.28;93980.97;10400332;28;20412;-74
2021/12/27 11:29:18;;;;;;;3.63;0.70;;;;;;;13.89;75.79;93990.81;10387059;28;20087;-72
2021/12/27 11:34:23;;;;;;;1.92;0.70;;;;;;;13.68;79.23;93982.47;10383153;28;20029;-80
2021/12/27 11:39:29;;;;;;;1.67;0.60;;;;;;;13.40;82.56;93979.16;10386319;28;20095;-81
2021/12/27 11:44:53;;;;;;;1.45;0.90;;;;;;;13.07;84.51;93966.69;10378872;28;20115;-72
2021/12/27 11:49:54;;;;;;;5.00;0.90;;;;;;;12.97;85.95;93961.56;10384148;28;20044;-77
2021/12/27 11:54:55;;;;;;;1.73;0.85;;;;;;;12.90;87.32;93966.59;10383772;28;20156;-70
2021/12/27 11:59:55;;;;;;;4.80;0.82;;;;;;;12.82;87.91;93977.03;10369662;28;20026;-73
2021/12/27 12:04:58;;;;;;;1.02;0.70;;;;;;;12.71;88.15;93961.38;10327341;28;20076;-77
2021/12/27 12:10:05;;;;;;;1.45;0.40;;;;;;;12.69;87.42;93950.09;10359426;28;20036;-75
2021/12/27 12:15:07;;;;;;;2.45;0.80;;;;;;;12.68;87.85;93953.91;10358168;28;20385;-81
2021/12/27 12:20:41;;;;;;;1.23;1.10;;;;;;;12.75;88.16;93944.28;10327256;28;20022;-76
2021/12/27 12:25:41;;;;;;;2.78;0.88;;;;;;;12.70;88.51;93941.72;10362605;28;20042;-76
2021/12/27 12:30:47;;;;;;;1.58;0.82;;;;;;;12.70;88.52;93935.50;10345895;28;20026;-72
2021/12/27 12:35:58;;;;;;;3.42;0.70;;;;;;;12.64;89.21;93937.53;10362564;28;20044;-80
2021/12/27 12:41:09;;;;;;;2.20;0.63;;;;;;;12.61;88.82;93927.34;10348381;28;20073;-79
2021/12/27 12:46:18;;;;;;;1.05;0.65;;;;;;;12.61;89.46;93930.88;10343718;28;20058;-75
2021/12/27 12:51:51;;;;;;;12.05;1.88;;;;;;;12.64;89.26;93938.34;10348084;28;20038;-78
2021/12/27 12:56:56;;;;;;;2.35;1.13;;;;;;;12.62;89.55;93918.97;10347418;28;20435;-73
2021/12/27 13:02:08;;;;;;;2.83;0.70;;;;;;;12.54;89.50;93927.00;10350137;28;20480;-78
2021/12/27 13:07:09;;;;;;;2.72;1.00;;;;;;;12.57;88.76;93915.59;10363800;28;20038;-75
2021/12/27 13:12:11;;;;;;;4.13;0.73;;;;;;;12.50;90.78;93926.00;10363650;28;20018;-75
2021/12/27 13:17:18;;;;;;;6.78;1.15;;;;;;;12.45;91.45;93925.03;10363618;28;20100;-80
2021/12/27 13:22:43;;;;;;;0.82;0.73;;;;;;;12.43;90.91;93919.16;10348538;28;20026;-80
2021/12/27 13:27:43;;;;;;;0.63;0.60;;;;;;;12.32;93.09;93912.38;10364250;28;20244;-76
2021/12/27 13:32:44;;;;;;;1.95;0.82;;;;;;;12.40;94.17;93927.81;10349400;28;20030;-79
2021/12/27 13:37:45;;;;;;;3.30;0.70;;;;;;;12.27;95.20;93931.38;10347439;28;20021;-80
2021/12/27 13:42:45;;;;;;;2.40;0.63;;;;;;;12.25;95.76;93947.03;10347405;28;20030;-80
2021/12/27 13:47:57;;;;;;;3.17;0.65;;;;;;;12.25;96.47;93947.03;10347183;28;20643;-75
2021/12/27 13:52:59;;;;;;;0.98;0.60;;;;;;;12.26;96.04;93938.63;10362814;28;20030;-72
2021/12/27 13:58:25;;;;;;;1.67;1.05;;;;;;;12.24;95.36;93945.44;10380988;28;20017;-78
2021/12/27 14:03:27;;;;;;;2.50;0.52;;;;;;;12.30;94.59;93939.63;10386581;28;20029;-81
2021/12/27 14:08:30;;;;;;;3.65;0.88;;;;;;;12.33;93.87;93932.06;10385983;28;20450;-74
2021/12/27 14:13:55;;;;;;;10.02;0.77;;;;;;;12.13;95.44;93948.34;10371198;28;20030;-70
2021/12/27 14:19:16;;;;;;;4.22;0.65;;;;;;;12.08;96.73;93943.09;10382220;28;20029;-73
2021/12/27 14:24:17;;;;;;;1.67;0.70;;;;;;;12.08;95.61;93931.50;10403871;28;20107;-74
2021/12/27 14:29:21;;;;;;;1.35;0.47;;;;;;;12.04;97.27;93935.91;10384232;28;20108;-75
2021/12/27 14:34:42;;;;;;;4.00;0.80;;;;;;;11.96;100.00;93932.03;10386516;28;20029;-81
2021/12/27 14:39:44;;;;;;;1.98;0.70;;;;;;;11.82;100.00;93942.78;10403337;28;20499;-76
2021/12/27 14:44:49;;;;;;;2.78;0.80;;;;;;;11.91;100.00;93953.63;10402861;28;20419;-74
2021/12/27 14:49:51;;;;;;;2.67;0.90;;;;;;;11.89;100.00;93928.91;10386482;28;20109;-77
2021/12/27 14:54:52;;;;;;;1.35;0.75;;;;;;;11.99;99.90;93938.69;10391508;28;20442;-79
2021/12/27 14:59:55;;;;;;;2.72;1.05;;;;;;;12.01;100.00;93921.13;10389578;28;20028;-81
2021/12/27 15:04:55;;;;;;;4.10;0.90;;;;;;;11.96;99.94;93915.88;10385437;28;20246;-74
2021/12/27 15:09:56;;;;;;;0.88;0.52;;;;;;;11.98;100.00;93940.59;10401813;28;20048;-75
2021/12/27 15:14:57;;;;;;;1.20;0.40;;;;;;;11.71;100.00;93966.41;10387761;28;20021;-72
2021/12/27 15:19:58;;;;;;;1.88;0.55;;;;;;;11.60;100.00;93946.97;10352748;28;20052;-77
2021/12/27 15:24:59;;;;;;;1.52;0.93;;;;;;;11.54;100.00;93952.72;10400955;28;20040;-70
2021/12/27 15:30:03;;;;;;;1.60;0.40;;;;;;;11.33;100.00;93960.38;10383077;28;20025;-72
2021/12/27 15:35:06;;;;;;;3.13;0.75;;;;;;;11.35;100.00;93948.25;10385835;28;20089;-74
2021/12/27 15:40:09;;;;;;;1.38;0.73;;;;;;;11.36;100.00;93933.69;10383431;28;20083;-77
2021/12/27 15:45:11;;;;;;;1.02;0.55;;;;;;;11.26;100.00;93944.63;10383723;28;20054;-73
2021/12/27 15:50:13;;;;;;;0.47;0.30;;;;;;;11.49;100.00;93955.53;10382942;28;20040;-71
2021/12/27 15:55:14;;;;;;;1.52;0.55;;;;;;;11.44;100.00;93957.22;10403230;28;20396;-74
2021/12/27 16:00:17;;;;;;;0.73;0.30;;;;;;;11.34;100.00;93973.53;10372678;28;20065;-71
2021/12/27 16:05:18;;;;;;;0.65;0.32;;;;;;;11.48;100.00;93970.09;10365393;28;20025;-74
2021/12/27 16:10:20;;;;;;;0.55;0.40;;;;;;;11.41;100.00;93957.84;10333525;28;20117;-74
2021/12/27 16:15:26;;;;;;;2.00;0.35;;;;;;;11.54;100.00;93958.94;10374277;28;20029;-77
2021/12/27 16:20:28;;;;;;;0.80;0.30;;;;;;;11.85;98.12;93960.25;10332800;28;20030;-78
2021/12/27 16:25:28;;;;;;;0.30;0.30;;;;;;;11.98;95.15;93988.28;10381162;28;20060;-73
2021/12/27 16:30:29;;;;;;;5.93;0.47;;;;;;;11.71;100.00;93987.94;10383916;28;20125;-79
2021/12/27 16:35:34;;;;;;;1.00;0.60;;;;;;;11.65;100.00;93983.72;10347086;28;20119;-74
2021/12/27 16:40:35;;;;;;;3.70;0.55;;;;;;;11.73;100.00;93985.75;10370121;28;20364;-73
2021/12/27 16:45:36;;;;;;;1.25;0.47;;;;;;;11.77;100.00;93984.03;10369678;28;20068;-78
2021/12/27 16:50:37;;;;;;;10.13;3.40;;;;;;;11.58;100.00;94003.00;10363617;28;20053;-73
2021/12/27 16:55:38;;;;;;;11.25;4.13;;;;;;;11.47;100.00;94009.66;10364041;28;20471;-76
2021/12/27 17:00:38;;;;;;;9.35;4.30;;;;;;;11.27;100.00;94016.16;10330532;28;20117;-76
2021/12/27 17:05:40;;;;;;;6.85;4.00;;;;;;;11.03;100.00;94002.88;10331228;28;20034;-74
2021/12/27 17:10:42;;;;;;;9.38;3.90;;;;;;;10.99;100.00;94008.00;10363499;28;20036;-73
2021/12/27 17:15:44;;;;;;;9.95;4.22;;;;;;;10.46;100.00;94035.16;10372870;28;20044;-78
2021/12/27 17:20:45;;;;;;;9.88;4.13;;;;;;;10.37;100.00;94016.19;10387989;28;20030;-73
2021/12/27 17:25:47;;;;;;;12.57;4.22;;;;;;;10.08;100.00;94025.13;10332527;28;20185;-73
2021/12/27 17:30:48;;;;;;;6.03;3.50;;;;;;;10.16;100.00;94035.22;10323228;28;20110;-75
2021/12/27 17:35:49;;;;;;;11.27;4.07;;;;;;;10.15;100.00;94035.50;10405462;28;20059;-72
2021/12/27 17:40:50;;;;;;;12.80;4.93;;;;;;;10.13;100.00;94043.84;10391552;28;20053;-72
2021/12/27 17:45:52;;;;;;;15.30;4.32;;;;;;;10.04;100.00;94035.63;10376066;28;20081;-79
2021/12/27 17:50:55;;;;;;;17.42;8.00;;;;;;;9.91;100.00;94033.63;10344529;28;20046;-73
2021/12/27 17:55:55;;;;;;;19.02;8.48;;;;;;;9.70;100.00;94052.63;10362192;28;20038;-73
2021/12/27 18:00:56;;;;;;;16.67;7.93;;;;;;;9.60;100.00;94047.38;10367625;28;20083;-73
2021/12/27 18:06:07;;;;;;;16.30;7.28;;;;;;;9.12;100.00;94058.00;10368395;28;20060;-77
2021/12/27 18:11:08;;;;;;;17.95;8.15;;;;;;;8.36;100.00;94076.94;10370660;28;20034;-73
2021/12/27 18:16:08;;;;;;;20.08;8.50;;;;;;;8.36;100.00;94056.31;10376120;28;20036;-72
2021/12/27 18:21:10;;;;;;;19.65;8.48;;;;;;;8.39;100.00;94058.41;10381387;28;20025;-78
2021/12/27 18:26:11;;;;;;;10.55;7.10;;;;;;;8.30;100.00;94073.47;10344343;28;20040;-76
2021/12/27 18:31:11;;;;;;;14.45;7.75;;;;;;;8.39;100.00;94077.16;10343527;28;20456;-76
2021/12/27 18:36:12;;;;;;;19.67;7.30;;;;;;;8.44;100.00;94071.00;10359754;28;20506;-69
2021/12/27 18:41:12;;;;;;;16.52;9.07;;;;;;;8.35;100.00;94088.72;10357915;28;20026;-71
2021/12/27 18:46:14;;;;;;;21.13;8.48;;;;;;;8.36;100.00;94090.31;10360557;28;20492;-79
2021/12/27 18:51:15;;;;;;;21.55;8.25;;;;;;;8.33;100.00;94106.91;10341774;28;20038;-74
2021/12/27 18:56:18;;;;;;;15.02;7.50;;;;;;;8.16;100.00;94072.44;10344924;28;20030;-71
2021/12/27 19:01:18;;;;;;;16.23;7.43;;;;;;;7.71;100.00;94109.78;10341934;28;20392;-72
2021/12/27 19:06:20;;;;;;;14.27;6.05;;;;;;;7.41;100.00;94113.28;10342216;28;20058;-71
2021/12/27 19:11:20;;;;;;;20.63;7.60;;;;;;;7.31;100.00;94106.88;10381518;28;20033;-70
2021/12/27 19:16:23;;;;;;;18.55;8.10;;;;;;;7.31;100.00;94104.22;10382623;28;20565;-75
2021/12/27 19:21:24;;;;;;;14.82;8.50;;;;;;;6.98;100.00;94146.41;10399417;28;20025;-74
2021/12/27 19:26:24;;;;;;;18.20;8.60;;;;;;;7.11;100.00;94120.25;10380491;28;20037;-71
2021/12/27 19:31:25;;;;;;;17.83;8.70;;;;;;;7.15;100.00;94127.44;10379931;28;20036;-74
2021/12/27 19:36:25;;;;;;;15.13;8.23;;;;;;;7.22;100.00;94150.44;10399006;28;20018;-76
2021/12/27 19:41:26;;;;;;;14.48;7.85;;;;;;;7.16;100.00;94166.47;10376447;28;20356;-72
2021/12/27 19:46:27;;;;;;;14.30;8.18;;;;;;;7.19;100.00;94138.41;10355994;28;20053;-71
2021/12/27 19:51:28;;;;;;;22.23;9.25;;;;;;;7.21;100.00;94138.16;10358443;28;20046;-73
2021/12/27 19:56:28;;;;;;;30.40;12.43;;;;;;;7.13;100.00;94140.28;10380757;28;20679;-72
2021/12/27 20:01:29;;;;;;;20.25;8.77;;;;;;;7.12;100.00;94116.50;10397179;28;20418;-71
2021/12/27 20:06:29;;;;;;;15.70;8.82;;;;;;;7.00;100.00;94152.31;10379594;28;20021;-71
2021/12/27 20:11:30;;;;;;;19.95;9.70;;;;;;;7.01;100.00;94135.19;10379029;28;20084;-71
2021/12/27 20:16:30;;;;;;;22.65;10.23;;;;;;;7.01;100.00;94134.38;10380214;28;20451;-77
2021/12/27 20:21:31;;;;;;;20.38;10.73;;;;;;;6.96;100.00;94140.53;10361625;28;20018;-72
2021/12/27 20:26:32;;;;;;;23.35;9.18;;;;;;;7.11;100.00;94139.72;10323683;28;20026;-71
2021/12/27 20:31:35;;;;;;;18.85;8.20;;;;;;;6.94;100.00;94156.00;10338898;28;20478;-71
2021/12/27 20:36:35;;;;;;;14.52;6.95;;;;;;;7.13;100.00;94166.19;10357847;28;20084;-71
2021/12/27 20:41:36;;;;;;;15.70;7.75;;;;;;;7.25;100.00;94148.03;10356550;28;20445;-74
2021/12/27 20:46:36;;;;;;;17.95;7.72;;;;;;;7.21;100.00;94154.19;10360510;28;20053;-76
2021/12/27 20:51:37;;;;;;;14.48;7.80;;;;;;;7.25;100.00;94131.19;10346924;28;20053;-74
2021/12/27 20:56:37;;;;;;;20.02;8.60;;;;;;;7.15;100.00;94145.34;10346852;28;20053;-74
2021/12/27 21:01:38;;;;;;;12.85;6.80;;;;;;;7.33;100.00;94149.38;10351064;28;20033;-74
2021/12/27 21:06:40;;;;;;;13.77;6.22;;;;;;;7.28;100.00;94126.09;10387384;28;20021;-73
2021/12/27 21:11:42;;;;;;;18.20;7.05;;;;;;;7.32;100.00;94127.19;10386243;28;20047;-76
2021/12/27 21:16:42;;;;;;;14.98;6.88;;;;;;;7.29;100.00;94132.28;10376234;28;20439;-72
2021/12/27 21:21:43;;;;;;;12.02;6.20;;;;;;;7.27;100.00;94137.88;10362752;28;20507;-73
2021/12/27 21:26:43;;;;;;;19.20;8.27;;;;;;;7.39;100.00;94128.81;10345606;28;20018;-72
2021/12/27 21:31:44;;;;;;;16.20;7.85;;;;;;;7.30;100.00;94140.03;10361063;28;20017;-70
2021/12/27 21:36:44;;;;;;;15.32;7.45;;;;;;;7.44;100.00;94137.63;10363108;28;20064;-71
2021/12/27 21:41:44;;;;;;;14.90;7.50;;;;;;;7.30;100.00;94123.19;10345520;28;20028;-72
2021/12/27 21:46:45;;;;;;;19.83;7.68;;;;;;;7.08;100.00;94118.09;10361725;28;20050;-71
2021/12/27 21:51:46;;;;;;;15.68;8.30;;;;;;;7.06;100.00;94130.91;10364105;28;20025;-74
2021/12/27 21:56:46;;;;;;;19.85;10.00;;;;;;;7.14;100.00;94131.19;10383668;28;20086;-73
2021/12/27 22:01:47;;;;;;;13.48;7.63;;;;;;;7.26;100.00;94133.59;10384179;28;20029;-74
2021/12/27 22:06:47;;;;;;;16.88;7.78;;;;;;;7.40;100.00;94117.03;10402660;28;20391;-74
2021/12/27 22:11:48;;;;;;;13.25;7.63;;;;;;;7.25;100.00;94129.31;10368424;28;20132;-75
2021/12/27 22:16:48;;;;;;;19.10;8.48;;;;;;;7.46;100.00;94123.97;10383314;28;20108;-73
2021/12/27 22:21:49;;;;;;;20.40;8.75;;;;;;;7.50;100.00;94119.69;10337062;28;20027;-75
2021/12/27 22:26:49;;;;;;;14.57;7.97;;;;;;;7.28;100.00;94118.09;10319107;28;20030;-71
2021/12/27 22:31:50;;;;;;;14.15;7.90;;;;;;;7.23;100.00;94118.09;10319668;28;20022;-71
2021/12/27 22:36:51;;;;;;;14.18;7.57;;;;;;;7.22;100.00;94121.06;10319987;28;20034;-73
2021/12/27 22:41:52;;;;;;;14.35;8.35;;;;;;;7.22;100.00;94118.38;10359844;28;20358;-71
2021/12/27 22:46:52;;;;;;;15.98;8.35;;;;;;;7.16;100.00;94110.34;10342312;28;20050;-72
2021/12/27 22:51:53;;;;;;;20.00;9.15;;;;;;;7.16;100.00;94114.91;10360333;28;20088;-70
2021/12/27 22:56:53;;;;;;;17.13;8.38;;;;;;;7.11;100.00;94114.91;10359196;28;20116;-72
2021/12/27 23:01:54;;;;;;;17.70;8.27;;;;;;;7.15;100.00;94111.41;10342708;28;20014;-73
2021/12/27 23:06:54;;;;;;;18.27;8.38;;;;;;;7.06;100.00;94118.38;10357985;28;20452;-69
2021/12/27 23:11:56;;;;;;;14.20;8.73;;;;;;;7.05;100.00;94100.72;10358770;28;20029;-71
2021/12/27 23:16:56;;;;;;;17.65;9.68;;;;;;;7.04;100.00;94106.34;10347994;28;20025;-71